sensor_id;sensor_type;location;lat;lon;timestamp;pressure;altitude;pressure_sealevel;temperature;humidity
18022;BME280;9136;48.822;7.966;2022-12-10T00:01:52;99103.63;;;1.52;100.00
18022;BME280;9136;48.822;7.966;2022-12-10T00:04:40;99108.84;;;1.49;100.00
18022;BME280;9136;48.822;7.966;2022-12-10T00:07:28;99130.16;;;1.67;100.00
18022;BME280;9136;48.822;7.966;2022-12-10T00:10:16;99115.66;;;1.54;100.00
18022;BME280;9136;48.822;7.966;2022-12-10T00:13:05;99106.22;;;1.52;100.00
18022;BME280;9136;48.822;7.966;2022-12-10T00:15:55;99132.03;;;1.56;100.00
18022;BME280;9136;48.822;7.966;2022-12-10T00:18:46;99108.84;;;1.49;100.00
18022;BME280;9136;48.822;7.966;2022-12-10T00:21:36;99095.09;;;1.45;100.00
18022;BME280;9136;48.822;7.966;2022-12-10T00:24:25;99112.34;;;1.44;100.00
18022;BME280;9136;48.822;7.966;2022-12-10T00:27:13;99136.38;;;1.53;100.00
18022;BME280;9136;48.822;7.966;2022-12-10T00:30:02;99127.69;;;1.58;100.00
18022;BME280;9136;48.822;7.966;2022-12-10T00:32:51;99104.56;;;1.44;100.00
18022;BME280;9136;48.822;7.966;2022-12-10T00:35:39;99104.56;;;1.44;100.00
18022;BME280;9136;48.822;7.966;2022-12-10T00:38:27;99112.34;;;1.46;100.00
18022;BME280;9136;48.822;7.966;2022-12-10T00:41:15;99101.13;;;1.46;100.00
18022;BME280;9136;48.822;7.966;2022-12-10T00:44:05;99116.53;;;1.53;100.00
18022;BME280;9136;48.822;7.966;2022-12-10T00:46:53;99134.56;;;1.59;100.00
18022;BME280;9136;48.822;7.966;2022-12-10T00:49:42;99148.28;;;1.66;100.00
18022;BME280;9136;48.822;7.966;2022-12-10T00:52:30;99122.59;;;1.52;100.00
18022;BME280;9136;48.822;7.966;2022-12-10T00:55:18;99158.66;;;1.66;100.00
18022;BME280;9136;48.822;7.966;2022-12-10T00:58:08;99129.50;;;1.52;100.00
18022;BME280;9136;48.822;7.966;2022-12-10T01:01:06;99127.88;;;1.44;100.00
18022;BME280;9136;48.822;7.966;2022-12-10T01:03:57;99129.63;;;1.42;100.00
18022;BME280;9136;48.822;7.966;2022-12-10T01:06:48;99144.16;;;1.51;100.00
18022;BME280;9136;48.822;7.966;2022-12-10T01:09:39;99165.66;;;1.58;100.00
18022;BME280;9136;48.822;7.966;2022-12-10T01:12:29;99161.34;;;1.58;100.00
18022;BME280;9136;48.822;7.966;2022-12-10T01:15:17;99134.94;;;1.32;100.00
18022;BME280;9136;48.822;7.966;2022-12-10T01:18:05;99169.31;;;1.41;100.00
18022;BME280;9136;48.822;7.966;2022-12-10T01:20:53;99127.22;;;1.29;100.00
18022;BME280;9136;48.822;7.966;2022-12-10T01:23:44;99159.78;;;1.43;100.00
18022;BME280;9136;48.822;7.966;2022-12-10T01:26:34;99162.38;;;1.45;100.00
18022;BME280;9136;48.822;7.966;2022-12-10T01:29:22;99158.91;;;1.44;100.00
18022;BME280;9136;48.822;7.966;2022-12-10T01:32:12;99155.47;;;1.44;100.00
18022;BME280;9136;48.822;7.966;2022-12-10T01:35:00;99131.47;;;1.33;100.00
18022;BME280;9136;48.822;7.966;2022-12-10T01:37:48;99164.03;;;1.51;100.00
18022;BME280;9136;48.822;7.966;2022-12-10T01:40:38;99145.13;;;1.46;100.00
18022;BME280;9136;48.822;7.966;2022-12-10T01:43:26;99148.56;;;1.44;100.00
18022;BME280;9136;48.822;7.966;2022-12-10T01:46:14;99126.41;;;1.27;100.00
18022;BME280;9136;48.822;7.966;2022-12-10T01:49:05;99156.34;;;1.43;100.00
18022;BME280;9136;48.822;7.966;2022-12-10T01:51:55;99129.91;;;1.21;100.00
18022;BME280;9136;48.822;7.966;2022-12-10T01:54:44;99150.41;;;1.38;100.00
18022;BME280;9136;48.822;7.966;2022-12-10T01:57:34;99166.69;;;1.43;100.00
18022;BME280;9136;48.822;7.966;2022-12-10T02:00:22;99163.28;;;1.41;100.00
18022;BME280;9136;48.822;7.966;2022-12-10T02:03:14;99155.66;;;1.30;100.00
18022;BME280;9136;48.822;7.966;2022-12-10T02:06:15;99165.94;;;1.35;100.00
18022;BME280;9136;48.822;7.966;2022-12-10T02:09:12;99136.84;;;1.18;100.00
18022;BME280;9136;48.822;7.966;2022-12-10T02:12:11;99179.69;;;1.40;100.00
18022;BME280;9136;48.822;7.966;2022-12-10T02:15:06;99166.06;;;1.27;100.00
18022;BME280;9136;48.822;7.966;2022-12-10T02:18:02;99184.03;;;1.35;100.00
18022;BME280;9136;48.822;7.966;2022-12-10T02:20:53;99152.31;;;1.22;100.00
18022;BME280;9136;48.822;7.966;2022-12-10T02:23:46;99158.34;;;1.23;100.00
18022;BME280;9136;48.822;7.966;2022-12-10T02:26:43;99140.34;;;1.12;100.00
18022;BME280;9136;48.822;7.966;2022-12-10T02:29:36;99187.50;;;1.37;100.00
18022;BME280;9136;48.822;7.966;2022-12-10T02:32:31;99156.53;;;1.29;100.00
18022;BME280;9136;48.822;7.966;2022-12-10T02:35:24;99174.50;;;1.40;100.00
18022;BME280;9136;48.822;7.966;2022-12-10T02:38:15;99141.03;;;1.28;100.00
18022;BME280;9136;48.822;7.966;2022-12-10T02:41:06;99147.81;;;1.38;100.00
18022;BME280;9136;48.822;7.966;2022-12-10T02:43:56;99162.38;;;1.45;100.00
18022;BME280;9136;48.822;7.966;2022-12-10T02:46:48;99128.13;;;1.25;100.00
18022;BME280;9136;48.822;7.966;2022-12-10T02:49:39;99161.50;;;1.44;100.00
18022;BME280;9136;48.822;7.966;2022-12-10T02:52:27;99165.00;;;1.42;100.00
18022;BME280;9136;48.822;7.966;2022-12-10T02:55:15;99145.38;;;1.24;100.00
18022;BME280;9136;48.822;7.966;2022-12-10T02:58:12;99142.78;;;1.26;100.00
18022;BME280;9136;48.822;7.966;2022-12-10T03:01:07;99157.44;;;1.25;100.00
18022;BME280;9136;48.822;7.966;2022-12-10T03:04:01;99142.81;;;1.23;100.00
18022;BME280;9136;48.822;7.966;2022-12-10T03:06:57;99177.13;;;1.38;100.00
18022;BME280;9136;48.822;7.966;2022-12-10T03:09:51;99160.84;;;1.30;100.00
18022;BME280;9136;48.822;7.966;2022-12-10T03:12:43;99178.88;;;1.35;100.00
18022;BME280;9136;48.822;7.966;2022-12-10T03:15:36;99170.34;;;1.28;100.00
18022;BME280;9136;48.822;7.966;2022-12-10T03:18:27;99149.78;;;1.18;100.00
18022;BME280;9136;48.822;7.966;2022-12-10T03:21:18;99149.75;;;1.19;100.00
18022;BME280;9136;48.822;7.966;2022-12-10T03:24:07;99151.41;;;1.26;100.00
18022;BME280;9136;48.822;7.966;2022-12-10T03:26:57;99166.81;;;1.34;100.00
18022;BME280;9136;48.822;7.966;2022-12-10T03:29:47;99191.78;;;1.38;100.00
18022;BME280;9136;48.822;7.966;2022-12-10T03:32:37;99159.16;;;1.25;100.00
18022;BME280;9136;48.822;7.966;2022-12-10T03:35:27;99173.09;;;1.16;100.00
18022;BME280;9136;48.822;7.966;2022-12-10T03:38:17;99178.00;;;1.34;100.00
18022;BME280;9136;48.822;7.966;2022-12-10T03:41:06;99150.69;;;1.12;100.00
18022;BME280;9136;48.822;7.966;2022-12-10T03:43:55;99159.19;;;1.23;100.00
18022;BME280;9136;48.822;7.966;2022-12-10T03:46:43;99169.56;;;1.22;100.00
18022;BME280;9136;48.822;7.966;2022-12-10T03:49:31;99185.03;;;1.26;100.00
18022;BME280;9136;48.822;7.966;2022-12-10T03:52:19;99185.78;;;1.36;100.00
18022;BME280;9136;48.822;7.966;2022-12-10T03:55:09;99163.50;;;1.23;100.00
18022;BME280;9136;48.822;7.966;2022-12-10T03:57:59;99180.72;;;1.27;100.00
18022;BME280;9136;48.822;7.966;2022-12-10T04:00:47;99176.50;;;1.18;100.00
18022;BME280;9136;48.822;7.966;2022-12-10T04:03:35;99173.09;;;1.13;100.00
18022;BME280;9136;48.822;7.966;2022-12-10T04:06:26;99158.53;;;1.06;100.00
18022;BME280;9136;48.822;7.966;2022-12-10T04:09:15;99180.72;;;1.24;100.00
18022;BME280;9136;48.822;7.966;2022-12-10T04:12:05;99191.03;;;1.30;100.00
18022;BME280;9136;48.822;7.966;2022-12-10T04:14:53;99171.34;;;1.18;100.00
18022;BME280;9136;48.822;7.966;2022-12-10T04:18:00;99162.00;;;1.06;100.00
18022;BME280;9136;48.822;7.966;2022-12-10T04:20:48;99175.66;;;1.18;100.00
18022;BME280;9136;48.822;7.966;2022-12-10T04:23:53;99167.06;;;1.12;100.00
18022;BME280;9136;48.822;7.966;2022-12-10T04:27:02;99155.03;;;1.10;100.00
18022;BME280;9136;48.822;7.966;2022-12-10T04:29:52;99183.41;;;1.18;100.00
18022;BME280;9136;48.822;7.966;2022-12-10T04:32:40;99155.94;;;1.06;100.00
18022;BME280;9136;48.822;7.966;2022-12-10T04:35:29;99160.25;;;1.08;100.00
18022;BME280;9136;48.822;7.966;2022-12-10T04:38:19;99159.50;;;0.99;100.00
18022;BME280;9136;48.822;7.966;2022-12-10T04:41:06;99134.59;;;0.89;100.00
18022;BME280;9136;48.822;7.966;2022-12-10T04:44:04;99188.69;;;1.05;100.00
18022;BME280;9136;48.822;7.966;2022-12-10T04:46:53;99177.50;;;1.06;100.00
18022;BME280;9136;48.822;7.966;2022-12-10T04:49:42;99182.69;;;1.06;100.00
18022;BME280;9136;48.822;7.966;2022-12-10T04:52:30;99155.38;;;0.81;100.00
18022;BME280;9136;48.822;7.966;2022-12-10T04:55:20;99177.59;;;0.97;100.00
18022;BME280;9136;48.822;7.966;2022-12-10T04:58:07;99162.19;;;0.85;100.00
18022;BME280;9136;48.822;7.966;2022-12-10T05:01:01;99161.25;;;0.94;100.00
18022;BME280;9136;48.822;7.966;2022-12-10T05:03:50;99159.63;;;0.85;100.00
18022;BME280;9136;48.822;7.966;2022-12-10T05:06:39;99176.75;;;0.97;100.00
18022;BME280;9136;48.822;7.966;2022-12-10T05:09:27;99198.22;;;1.03;100.00
18022;BME280;9136;48.822;7.966;2022-12-10T05:12:15;99199.91;;;1.04;100.00
18022;BME280;9136;48.822;7.966;2022-12-10T05:15:04;99181.09;;;0.93;100.00
18022;BME280;9136;48.822;7.966;2022-12-10T05:17:52;99192.25;;;0.95;100.00
18022;BME280;9136;48.822;7.966;2022-12-10T05:20:42;99180.28;;;0.86;100.00
18022;BME280;9136;48.822;7.966;2022-12-10T05:23:32;99174.25;;;0.88;100.00
18022;BME280;9136;48.822;7.966;2022-12-10T05:26:23;99212.88;;;1.01;100.00
18022;BME280;9136;48.822;7.966;2022-12-10T05:29:12;99207.78;;;0.95;100.00
18022;BME280;9136;48.822;7.966;2022-12-10T05:32:01;99168.34;;;0.75;100.00
18022;BME280;9136;48.822;7.966;2022-12-10T05:34:50;99174.28;;;0.84;100.00
18022;BME280;9136;48.822;7.966;2022-12-10T05:37:39;99194.84;;;0.94;100.00
18022;BME280;9136;48.822;7.966;2022-12-10T05:40:27;99184.69;;;0.80;100.00
18022;BME280;9136;48.822;7.966;2022-12-10T05:43:15;99203.53;;;0.86;100.00
18022;BME280;9136;48.822;7.966;2022-12-10T05:46:05;99172.72;;;0.67;100.00
18022;BME280;9136;48.822;7.966;2022-12-10T05:48:53;99180.38;;;0.79;100.00
18022;BME280;9136;48.822;7.966;2022-12-10T05:51:43;99166.69;;;0.66;100.00
18022;BME280;9136;48.822;7.966;2022-12-10T05:54:32;99210.47;;;0.83;100.00
18022;BME280;9136;48.822;7.966;2022-12-10T05:57:20;99208.72;;;0.85;100.00
18022;BME280;9136;48.822;7.966;2022-12-10T06:00:09;99224.19;;;0.91;100.00
18022;BME280;9136;48.822;7.966;2022-12-10T06:02:57;99214.00;;;0.76;100.00
18022;BME280;9136;48.822;7.966;2022-12-10T06:05:45;99232.00;;;0.88;100.00
18022;BME280;9136;48.822;7.966;2022-12-10T06:08:34;99207.16;;;0.70;100.00
18022;BME280;9136;48.822;7.966;2022-12-10T06:11:23;99241.47;;;0.84;100.00
18022;BME280;9136;48.822;7.966;2022-12-10T06:14:12;99242.44;;;0.76;100.00
18022;BME280;9136;48.822;7.966;2022-12-10T06:17:00;99238.16;;;0.73;100.00
18022;BME280;9136;48.822;7.966;2022-12-10T06:19:48;99263.84;;;0.92;100.00
18022;BME280;9136;48.822;7.966;2022-12-10T06:22:36;99270.75;;;0.90;100.00
18022;BME280;9136;48.822;7.966;2022-12-10T06:25:23;99233.94;;;0.62;100.00
18022;BME280;9136;48.822;7.966;2022-12-10T06:28:13;99248.56;;;0.64;100.00
18022;BME280;9136;48.822;7.966;2022-12-10T06:31:01;99245.16;;;0.61;100.00
18022;BME280;9136;48.822;7.966;2022-12-10T06:33:49;99281.19;;;0.76;100.00
18022;BME280;9136;48.822;7.966;2022-12-10T06:36:37;99254.63;;;0.60;100.00
18022;BME280;9136;48.822;7.966;2022-12-10T06:39:25;99285.50;;;0.75;100.00
18022;BME280;9136;48.822;7.966;2022-12-10T06:42:13;99292.41;;;0.78;100.00
18022;BME280;9136;48.822;7.966;2022-12-10T06:45:03;99264.97;;;0.57;100.00
18022;BME280;9136;48.822;7.966;2022-12-10T06:47:51;99258.13;;;0.54;100.00
18022;BME280;9136;48.822;7.966;2022-12-10T06:50:39;99270.09;;;0.68;100.00
18022;BME280;9136;48.822;7.966;2022-12-10T06:53:27;99261.59;;;0.47;100.00
18022;BME280;9136;48.822;7.966;2022-12-10T06:56:17;99279.66;;;0.53;100.00
18022;BME280;9136;48.822;7.966;2022-12-10T06:59:44;99266.84;;;0.41;100.00
18022;BME280;9136;48.822;7.966;2022-12-10T07:02:35;99296.00;;;0.59;100.00
18022;BME280;9136;48.822;7.966;2022-12-10T07:05:23;99317.47;;;0.64;100.00
18022;BME280;9136;48.822;7.966;2022-12-10T07:08:11;99278.84;;;0.50;100.00
18022;BME280;9136;48.822;7.966;2022-12-10T07:10:59;99298.56;;;0.57;100.00
18022;BME280;9136;48.822;7.966;2022-12-10T07:13:47;99305.47;;;0.58;100.00
18022;BME280;9136;48.822;7.966;2022-12-10T07:16:35;99304.59;;;0.56;100.00
18022;BME280;9136;48.822;7.966;2022-12-10T07:19:26;99280.63;;;0.37;100.00
18022;BME280;9136;48.822;7.966;2022-12-10T07:22:14;99279.81;;;0.32;100.00
18022;BME280;9136;48.822;7.966;2022-12-10T07:25:04;99312.44;;;0.48;100.00
18022;BME280;9136;48.822;7.966;2022-12-10T07:27:53;99332.13;;;0.63;100.00
18022;BME280;9136;48.822;7.966;2022-12-10T07:30:46;99324.47;;;0.51;100.00
18022;BME280;9136;48.822;7.966;2022-12-10T07:33:38;99331.31;;;0.58;100.00
18022;BME280;9136;48.822;7.966;2022-12-10T07:36:33;99326.16;;;0.53;100.00
18022;BME280;9136;48.822;7.966;2022-12-10T07:39:23;99339.91;;;0.60;100.00
18022;BME280;9136;48.822;7.966;2022-12-10T07:42:11;99347.59;;;0.69;100.00
18022;BME280;9136;48.822;7.966;2022-12-10T07:45:09;99348.47;;;0.65;100.00
18022;BME280;9136;48.822;7.966;2022-12-10T07:47:59;99348.47;;;0.70;100.00
18022;BME280;9136;48.822;7.966;2022-12-10T07:50:55;99339.03;;;0.63;100.00
18022;BME280;9136;48.822;7.966;2022-12-10T07:53:46;99359.66;;;0.70;100.00
18022;BME280;9136;48.822;7.966;2022-12-10T07:56:44;99347.53;;;0.77;100.00
18022;BME280;9136;48.822;7.966;2022-12-10T07:59:49;99335.59;;;0.61;100.00
18022;BME280;9136;48.822;7.966;2022-12-10T08:02:43;99333.03;;;0.54;100.00
18022;BME280;9136;48.822;7.966;2022-12-10T08:05:32;99347.59;;;0.66;100.00
18022;BME280;9136;48.822;7.966;2022-12-10T08:08:23;99330.53;;;0.48;100.00
18022;BME280;9136;48.822;7.966;2022-12-10T08:11:17;99366.59;;;0.62;100.00
18022;BME280;9136;48.822;7.966;2022-12-10T08:14:05;99357.13;;;0.63;100.00
18022;BME280;9136;48.822;7.966;2022-12-10T08:16:53;99369.16;;;0.64;100.00
18022;BME280;9136;48.822;7.966;2022-12-10T08:19:44;99363.94;;;0.73;100.00
18022;BME280;9136;48.822;7.966;2022-12-10T08:22:39;99362.25;;;0.66;100.00
18022;BME280;9136;48.822;7.966;2022-12-10T08:25:38;99337.34;;;0.54;100.00
18022;BME280;9136;48.822;7.966;2022-12-10T08:28:38;99328.75;;;0.53;100.00
18022;BME280;9136;48.822;7.966;2022-12-10T08:31:44;99355.41;;;0.62;100.00
18022;BME280;9136;48.822;7.966;2022-12-10T08:34:32;99368.28;;;0.66;100.00
18022;BME280;9136;48.822;7.966;2022-12-10T08:37:20;99386.31;;;0.80;100.00
18022;BME280;9136;48.822;7.966;2022-12-10T08:40:09;99389.69;;;0.85;100.00
18022;BME280;9136;48.822;7.966;2022-12-10T08:42:57;99358.78;;;0.73;100.00
18022;BME280;9136;48.822;7.966;2022-12-10T08:45:46;99374.22;;;0.80;100.00
18022;BME280;9136;48.822;7.966;2022-12-10T08:48:37;99369.88;;;0.84;100.00
18022;BME280;9136;48.822;7.966;2022-12-10T08:51:26;99355.28;;;0.75;100.00
18022;BME280;9136;48.822;7.966;2022-12-10T08:54:16;99354.50;;;0.70;100.00
18022;BME280;9136;48.822;7.966;2022-12-10T08:57:03;99368.19;;;0.83;100.00
18022;BME280;9136;48.822;7.966;2022-12-10T08:59:53;99369.03;;;0.83;100.00
18022;BME280;9136;48.822;7.966;2022-12-10T09:02:43;99408.56;;;0.96;100.00
18022;BME280;9136;48.822;7.966;2022-12-10T09:05:31;99374.19;;;0.88;100.00
18022;BME280;9136;48.822;7.966;2022-12-10T09:08:21;99399.16;;;0.91;100.00
18022;BME280;9136;48.822;7.966;2022-12-10T09:11:11;99387.19;;;0.74;100.00
18022;BME280;9136;48.822;7.966;2022-12-10T09:14:00;99400.03;;;0.90;100.00
18022;BME280;9136;48.822;7.966;2022-12-10T09:16:50;99396.66;;;0.78;100.00
18022;BME280;9136;48.822;7.966;2022-12-10T09:19:41;99391.47;;;0.75;100.00
18022;BME280;9136;48.822;7.966;2022-12-10T09:33:37;99443.88;;;1.02;100.00
18022;BME280;9136;48.822;7.966;2022-12-10T09:36:29;99414.69;;;0.88;100.00
18022;BME280;9136;48.822;7.966;2022-12-10T09:39:17;99413.81;;;0.90;100.00
18022;BME280;9136;48.822;7.966;2022-12-10T09:45:57;99439.50;;;1.13;100.00
18022;BME280;9136;48.822;7.966;2022-12-10T09:48:58;99430.91;;;1.11;100.00
18022;BME280;9136;48.822;7.966;2022-12-10T09:51:50;99416.38;;;0.93;100.00
18022;BME280;9136;48.822;7.966;2022-12-10T09:54:44;99414.63;;;0.98;100.00
18022;BME280;9136;48.822;7.966;2022-12-10T09:57:35;99412.78;;;1.11;100.00
18022;BME280;9136;48.822;7.966;2022-12-10T10:00:29;99428.25;;;1.19;100.00
18022;BME280;9136;48.822;7.966;2022-12-10T10:03:18;99439.25;;;1.47;100.00
18022;BME280;9136;48.822;7.966;2022-12-10T10:06:08;99429.69;;;1.53;100.00
18022;BME280;9136;48.822;7.966;2022-12-10T10:09:01;99409.06;;;1.46;100.00
18022;BME280;9136;48.822;7.966;2022-12-10T10:11:50;99434.13;;;1.39;100.00
18022;BME280;9136;48.822;7.966;2022-12-10T10:14:38;99436.53;;;1.59;100.00
18022;BME280;9136;48.822;7.966;2022-12-10T10:17:30;99430.63;;;1.43;100.00
18022;BME280;9136;48.822;7.966;2022-12-10T10:20:22;99451.25;;;1.54;100.00
18022;BME280;9136;48.822;7.966;2022-12-10T10:23:12;99450.31;;;1.61;100.00
18022;BME280;9136;48.822;7.966;2022-12-10T10:26:02;99422.97;;;1.31;100.00
18022;BME280;9136;48.822;7.966;2022-12-10T10:28:55;99412.59;;;1.34;100.00
18022;BME280;9136;48.822;7.966;2022-12-10T10:31:44;99422.88;;;1.41;100.00
18022;BME280;9136;48.822;7.966;2022-12-10T10:34:39;99456.47;;;1.51;100.00
18022;BME280;9136;48.822;7.966;2022-12-10T10:37:29;99443.56;;;1.46;100.00
18022;BME280;9136;48.822;7.966;2022-12-10T10:40:23;99448.66;;;1.52;100.00
18022;BME280;9136;48.822;7.966;2022-12-10T10:43:19;99441.69;;;1.65;100.00
18022;BME280;9136;48.822;7.966;2022-12-10T10:46:11;99460.53;;;1.78;100.00
18022;BME280;9136;48.822;7.966;2022-12-10T10:49:17;99447.63;;;1.73;100.00
18022;BME280;9136;48.822;7.966;2022-12-10T10:52:13;99420.94;;;1.66;100.00
18022;BME280;9136;48.822;7.966;2022-12-10T10:55:03;99471.63;;;1.89;100.00
18022;BME280;9136;48.822;7.966;2022-12-10T10:57:53;99471.78;;;1.73;100.00
18022;BME280;9136;48.822;7.966;2022-12-10T11:00:53;99451.25;;;1.55;100.00
18022;BME280;9136;48.822;7.966;2022-12-10T11:03:47;99429.69;;;1.52;100.00
18022;BME280;9136;48.822;7.966;2022-12-10T11:06:36;99467.50;;;1.71;100.00
18022;BME280;9136;48.822;7.966;2022-12-10T11:09:29;99459.72;;;1.72;100.00
18022;BME280;9136;48.822;7.966;2022-12-10T11:12:36;99451.06;;;1.73;100.00
18022;BME280;9136;48.822;7.966;2022-12-10T11:15:34;99457.00;;;1.83;100.00
18022;BME280;9136;48.822;7.966;2022-12-10T11:18:33;99430.38;;;1.70;100.00
18022;BME280;9136;48.822;7.966;2022-12-10T11:21:29;99468.06;;;2.00;100.00
18022;BME280;9136;48.822;7.966;2022-12-10T11:24:19;99451.75;;;1.94;100.00
18022;BME280;9136;48.822;7.966;2022-12-10T11:27:13;99432.84;;;1.86;100.00
18022;BME280;9136;48.822;7.966;2022-12-10T11:30:07;99432.09;;;1.75;100.00
18022;BME280;9136;48.822;7.966;2022-12-10T11:33:20;99430.34;;;1.73;100.00
18022;BME280;9136;48.822;7.966;2022-12-10T11:36:25;99462.91;;;1.99;100.00
18022;BME280;9136;48.822;7.966;2022-12-10T11:39:25;99466.28;;;2.07;100.00
18022;BME280;9136;48.822;7.966;2022-12-10T11:42:24;99420.66;;;1.92;100.00
18022;BME280;9136;48.822;7.966;2022-12-10T11:45:20;99459.13;;;2.32;100.00
18022;BME280;9136;48.822;7.966;2022-12-10T11:48:24;99455.81;;;2.16;100.00
18022;BME280;9136;48.822;7.966;2022-12-10T11:51:30;99422.31;;;1.99;100.00
18022;BME280;9136;48.822;7.966;2022-12-10T11:54:32;99473.69;;;2.39;100.00
18022;BME280;9136;48.822;7.966;2022-12-10T11:57:28;99450.53;;;2.25;100.00
18022;BME280;9136;48.822;7.966;2022-12-10T12:00:23;99453.81;;;2.40;100.00
18022;BME280;9136;48.822;7.966;2022-12-10T12:03:27;99464.97;;;2.46;100.00
18022;BME280;9136;48.822;7.966;2022-12-10T12:06:36;99464.16;;;2.43;100.00
18022;BME280;9136;48.822;7.966;2022-12-10T12:09:45;99481.28;;;2.54;100.00
18022;BME280;9136;48.822;7.966;2022-12-10T12:12:42;99490.75;;;2.57;100.00
18022;BME280;9136;48.822;7.966;2022-12-10T12:15:36;99475.19;;;2.58;100.00
18022;BME280;9136;48.822;7.966;2022-12-10T12:18:39;99494.00;;;2.76;100.00
18022;BME280;9136;48.822;7.966;2022-12-10T12:21:31;99477.75;;;2.60;100.00
18022;BME280;9136;48.822;7.966;2022-12-10T12:24:21;99494.06;;;2.68;100.00
18022;BME280;9136;48.822;7.966;2022-12-10T12:27:22;99469.13;;;2.61;100.00
18022;BME280;9136;48.822;7.966;2022-12-10T12:30:16;99495.81;;;2.68;100.00
18022;BME280;9136;48.822;7.966;2022-12-10T12:33:16;99488.16;;;2.58;100.00
18022;BME280;9136;48.822;7.966;2022-12-10T12:36:10;99513.84;;;2.78;100.00
18022;BME280;9136;48.822;7.966;2022-12-10T12:39:16;99512.00;;;2.86;100.00
18022;BME280;9136;48.822;7.966;2022-12-10T12:42:14;99487.25;;;2.63;100.00
18022;BME280;9136;48.822;7.966;2022-12-10T12:45:11;99491.59;;;2.59;100.00
18022;BME280;9136;48.822;7.966;2022-12-10T12:48:14;99484.25;;;2.21;100.00
18022;BME280;9136;48.822;7.966;2022-12-10T12:51:07;99512.84;;;2.13;100.00
18022;BME280;9136;48.822;7.966;2022-12-10T12:54:00;99518.88;;;2.15;100.00
18022;BME280;9136;48.822;7.966;2022-12-10T12:56:58;99519.75;;;2.11;100.00
18022;BME280;9136;48.822;7.966;2022-12-10T12:59:54;99519.66;;;2.22;100.00
18022;BME280;9136;48.822;7.966;2022-12-10T13:02:54;99514.31;;;2.37;100.00
18022;BME280;9136;48.822;7.966;2022-12-10T13:05:46;99525.41;;;2.51;100.00
18022;BME280;9136;48.822;7.966;2022-12-10T13:08:42;99533.78;;;2.75;100.00
18022;BME280;9136;48.822;7.966;2022-12-10T13:11:36;99512.09;;;2.79;100.00
18022;BME280;9136;48.822;7.966;2022-12-10T13:14:35;99527.44;;;2.96;100.00
18022;BME280;9136;48.822;7.966;2022-12-10T13:17:31;99522.50;;;2.77;100.00
18022;BME280;9136;48.822;7.966;2022-12-10T13:20:34;99500.97;;;2.72;100.00
18022;BME280;9136;48.822;7.966;2022-12-10T13:23:33;99525.06;;;2.79;100.00
18022;BME280;9136;48.822;7.966;2022-12-10T13:26:26;99537.97;;;2.85;100.00
18022;BME280;9136;48.822;7.966;2022-12-10T13:29:25;99531.06;;;2.84;100.00
18022;BME280;9136;48.822;7.966;2022-12-10T13:32:17;99531.84;;;2.91;100.00
18022;BME280;9136;48.822;7.966;2022-12-10T13:35:22;99537.91;;;2.91;100.00
18022;BME280;9136;48.822;7.966;2022-12-10T13:38:19;99567.97;;;3.06;100.00
18022;BME280;9136;48.822;7.966;2022-12-10T13:41:09;99569.78;;;2.98;100.00
18022;BME280;9136;48.822;7.966;2022-12-10T13:44:37;99528.88;;;2.52;100.00
18022;BME280;9136;48.822;7.966;2022-12-10T13:47:42;99540.22;;;2.39;100.00
18022;BME280;9136;48.822;7.966;2022-12-10T13:50:35;99573.03;;;2.40;100.00
18022;BME280;9136;48.822;7.966;2022-12-10T13:53:39;99545.66;;;2.16;100.00
18022;BME280;9136;48.822;7.966;2022-12-10T13:56:39;99555.84;;;2.31;100.00
18022;BME280;9136;48.822;7.966;2022-12-10T13:59:36;99567.91;;;2.37;100.00
18022;BME280;9136;48.822;7.966;2022-12-10T14:02:46;99566.03;;;2.48;100.00
18022;BME280;9136;48.822;7.966;2022-12-10T14:05:55;99583.31;;;2.49;100.00
18022;BME280;9136;48.822;7.966;2022-12-10T14:08:54;99581.63;;;2.46;100.00
18022;BME280;9136;48.822;7.966;2022-12-10T14:11:49;99570.56;;;2.29;100.00
18022;BME280;9136;48.822;7.966;2022-12-10T14:14:40;99590.53;;;2.18;100.00
18022;BME280;9136;48.822;7.966;2022-12-10T14:17:34;99584.59;;;2.05;100.00
18022;BME280;9136;48.822;7.966;2022-12-10T14:20:28;99588.84;;;2.11;100.00
18022;BME280;9136;48.822;7.966;2022-12-10T14:23:25;99609.50;;;2.20;100.00
18022;BME280;9136;48.822;7.966;2022-12-10T14:26:27;99572.59;;;1.96;100.00
18022;BME280;9136;48.822;7.966;2022-12-10T14:29:19;99603.53;;;2.15;100.00
18022;BME280;9136;48.822;7.966;2022-12-10T14:32:13;99617.28;;;2.23;100.00
18022;BME280;9136;48.822;7.966;2022-12-10T14:35:04;99625.03;;;2.24;100.00
18022;BME280;9136;48.822;7.966;2022-12-10T14:37:58;99609.56;;;2.14;100.00
18022;BME280;9136;48.822;7.966;2022-12-10T14:40:48;99617.34;;;2.15;100.00
18022;BME280;9136;48.822;7.966;2022-12-10T14:43:38;99626.78;;;2.22;100.00
18022;BME280;9136;48.822;7.966;2022-12-10T14:46:28;99608.69;;;2.15;100.00
18022;BME280;9136;48.822;7.966;2022-12-10T14:49:20;99613.81;;;2.19;100.00
18022;BME280;9136;48.822;7.966;2022-12-10T14:52:12;99600.97;;;2.09;100.00
18022;BME280;9136;48.822;7.966;2022-12-10T14:55:11;99631.06;;;2.25;100.00
18022;BME280;9136;48.822;7.966;2022-12-10T14:58:02;99633.78;;;2.13;100.00
18022;BME280;9136;48.822;7.966;2022-12-10T15:00:53;99642.50;;;1.98;100.00
18022;BME280;9136;48.822;7.966;2022-12-10T15:03:45;99614.13;;;1.84;100.00
18022;BME280;9136;48.822;7.966;2022-12-10T15:06:36;99645.88;;;2.08;100.00
18022;BME280;9136;48.822;7.966;2022-12-10T15:09:25;99635.53;;;2.06;100.00
18022;BME280;9136;48.822;7.966;2022-12-10T15:12:35;99614.09;;;1.87;100.00
18022;BME280;9136;48.822;7.966;2022-12-10T15:15:32;99629.66;;;1.86;100.00
18022;BME280;9136;48.822;7.966;2022-12-10T15:18:27;99658.91;;;1.98;100.00
18022;BME280;9136;48.822;7.966;2022-12-10T15:21:19;99660.66;;;1.96;100.00
18022;BME280;9136;48.822;7.966;2022-12-10T15:24:14;99652.16;;;1.71;100.00
18022;BME280;9136;48.822;7.966;2022-12-10T15:27:14;99637.59;;;1.54;100.00
18022;BME280;9136;48.822;7.966;2022-12-10T15:30:31;99622.19;;;1.32;100.00
18022;BME280;9136;48.822;7.966;2022-12-10T15:33:36;99649.72;;;1.44;100.00
18022;BME280;9136;48.822;7.966;2022-12-10T15:36:31;99653.25;;;1.31;100.00
18022;BME280;9136;48.822;7.966;2022-12-10T15:39:26;99640.38;;;1.15;100.00
18022;BME280;9136;48.822;7.966;2022-12-10T15:42:38;99630.94;;;1.07;100.00